createdAt,value
2022-11-08T00:00:42.371Z,6.70
2022-11-08T00:01:42.405Z,4.30
2022-11-08T00:02:42.490Z,4.20
2022-11-08T00:03:42.314Z,4.50
2022-11-08T00:04:42.331Z,4.80
2022-11-08T00:05:42.296Z,4.90
2022-11-08T00:06:42.296Z,5.20
2022-11-08T00:07:42.282Z,4.90
2022-11-08T00:08:42.302Z,3.30
2022-11-08T00:09:42.254Z,5.70
2022-11-08T00:10:42.238Z,6.20
2022-11-08T00:11:42.262Z,4.70
2022-11-08T00:12:42.234Z,6.90
2022-11-08T00:13:42.201Z,3.70
2022-11-08T00:14:42.190Z,4.00
2022-11-08T00:15:42.189Z,4.50
2022-11-08T00:16:42.189Z,5.30
2022-11-08T00:17:42.157Z,5.20
2022-11-08T00:18:42.168Z,3.10
2022-11-08T00:19:42.137Z,5.60
2022-11-08T00:20:42.124Z,3.60
2022-11-08T00:21:42.130Z,4.70
2022-11-08T00:22:42.152Z,5.10
2022-11-08T00:23:42.088Z,5.90
2022-11-08T00:24:42.106Z,5.90
2022-11-08T00:25:42.071Z,4.10
2022-11-08T00:26:42.059Z,4.40
2022-11-08T00:27:42.081Z,6.00
2022-11-08T00:28:42.034Z,4.50
2022-11-08T00:29:42.032Z,4.00
2022-11-08T00:30:42.013Z,6.10
2022-11-08T00:31:42.000Z,5.30
2022-11-08T00:32:41.989Z,6.70
2022-11-08T00:33:42.013Z,7.00
2022-11-08T00:34:41.968Z,3.50
2022-11-08T00:35:41.958Z,4.10
2022-11-08T00:36:41.942Z,5.80
2022-11-08T00:37:41.944Z,6.80
2022-11-08T00:38:42.026Z,4.70
2022-11-08T00:39:41.913Z,3.50
2022-11-08T00:40:41.901Z,2.70
2022-11-08T00:41:41.891Z,5.30
2022-11-08T00:42:41.876Z,3.50
2022-11-08T00:43:41.906Z,6.80
2022-11-08T00:44:41.858Z,4.50
2022-11-08T00:45:41.846Z,4.40
2022-11-08T00:46:41.829Z,4.40
2022-11-08T00:47:41.819Z,3.80
2022-11-08T00:48:41.940Z,5.80
2022-11-08T00:49:41.797Z,5.50
2022-11-08T00:50:41.793Z,6.20
2022-11-08T00:51:41.777Z,4.80
2022-11-08T00:52:41.798Z,4.90
2022-11-08T00:53:41.756Z,4.70
2022-11-08T00:54:41.759Z,5.80
2022-11-08T00:55:41.732Z,4.50
2022-11-08T00:56:41.718Z,3.50
2022-11-08T00:57:58.559Z,3.60
2022-11-08T00:58:42.697Z,5.80
2022-11-08T00:59:41.728Z,4.60
2022-11-08T01:00:41.684Z,6.20
2022-11-08T01:01:41.815Z,4.20
2022-11-08T01:02:41.741Z,4.90
2022-11-08T01:03:41.642Z,3.60
2022-11-08T01:04:41.642Z,4.30
2022-11-08T01:05:41.622Z,6.40
2022-11-08T01:06:41.619Z,5.40
2022-11-08T01:07:41.623Z,5.00
2022-11-08T01:08:41.586Z,4.50
2022-11-08T01:09:41.604Z,5.30
2022-11-08T01:10:41.581Z,4.90
2022-11-08T01:11:41.558Z,4.20
2022-11-08T01:12:41.542Z,3.90
2022-11-08T01:13:41.531Z,4.80
2022-11-08T01:14:41.538Z,2.70
2022-11-08T01:15:41.626Z,5.10
2022-11-08T01:16:41.496Z,5.20
2022-11-08T01:17:41.491Z,7.80
2022-11-08T01:18:41.497Z,3.20
2022-11-08T01:19:41.462Z,4.80
2022-11-08T01:20:41.455Z,5.00
2022-11-08T01:21:41.469Z,4.40
2022-11-08T01:22:41.430Z,5.00
2022-11-08T01:23:41.449Z,5.30
2022-11-08T01:24:41.411Z,5.60
2022-11-08T01:25:41.396Z,5.60
2022-11-08T01:26:41.444Z,5.10
2022-11-08T01:27:41.379Z,5.20
2022-11-08T01:28:41.392Z,4.00
2022-11-08T01:29:41.352Z,5.30
2022-11-08T01:30:41.340Z,4.90
2022-11-08T01:31:41.338Z,5.20
2022-11-08T01:32:41.321Z,4.50
2022-11-08T01:33:41.333Z,7.80
2022-11-08T01:34:41.295Z,4.70
2022-11-08T01:35:41.306Z,4.70
2022-11-08T01:36:41.272Z,6.20
2022-11-08T01:37:41.262Z,4.70
2022-11-08T01:38:41.281Z,3.10
2022-11-08T01:39:41.239Z,5.90
2022-11-08T01:40:41.229Z,3.50
2022-11-08T01:41:41.221Z,5.40
2022-11-08T01:42:41.234Z,5.70
2022-11-08T01:43:41.198Z,3.90
2022-11-08T01:44:41.205Z,4.60
2022-11-08T01:45:41.204Z,2.70
2022-11-08T01:46:41.160Z,5.00
2022-11-08T01:47:41.149Z,4.20
2022-11-08T01:48:41.145Z,3.90
2022-11-08T01:49:41.126Z,6.00
2022-11-08T01:50:41.144Z,4.70
2022-11-08T01:51:41.134Z,4.80
2022-11-08T01:52:41.100Z,5.40
2022-11-08T01:53:41.081Z,6.20
2022-11-08T01:54:41.071Z,5.30
2022-11-08T01:55:41.076Z,5.10
2022-11-08T01:56:41.081Z,3.80
2022-11-08T01:57:41.044Z,6.20
2022-11-08T01:58:41.090Z,3.10
2022-11-08T01:59:41.061Z,5.30
2022-11-08T02:00:41.016Z,4.70
2022-11-08T02:01:41.219Z,4.30
2022-11-08T02:02:41.041Z,3.00
2022-11-08T02:03:40.974Z,3.50
2022-11-08T02:04:40.994Z,5.60
2022-11-08T02:05:41.060Z,6.50
2022-11-08T02:06:41.006Z,7.10
2022-11-08T02:07:40.962Z,4.00
2022-11-08T02:08:40.988Z,3.50
2022-11-08T02:09:40.931Z,4.20
2022-11-08T02:10:40.902Z,4.40
2022-11-08T02:11:40.893Z,4.20
2022-11-08T02:12:40.874Z,7.90
2022-11-08T02:13:40.938Z,7.00
2022-11-08T02:14:40.895Z,5.60
2022-11-08T02:15:40.869Z,4.70
2022-11-08T02:16:40.823Z,5.50
2022-11-08T02:17:40.820Z,5.70
2022-11-08T02:18:40.834Z,6.90
2022-11-08T02:19:40.795Z,4.70
2022-11-08T02:20:40.787Z,5.40
2022-11-08T02:21:40.771Z,6.70
2022-11-08T02:22:40.766Z,5.00
2022-11-08T02:23:40.774Z,5.00
2022-11-08T02:24:40.736Z,6.60
2022-11-08T02:25:40.725Z,5.80
2022-11-08T02:26:40.714Z,6.70
2022-11-08T02:27:40.730Z,4.90
2022-11-08T02:28:40.732Z,6.80
2022-11-08T02:29:40.711Z,6.50
2022-11-08T02:30:40.689Z,5.70
2022-11-08T02:31:40.691Z,5.20
2022-11-08T02:32:40.670Z,7.20
2022-11-08T02:33:40.636Z,4.70
2022-11-08T02:34:40.647Z,7.60
2022-11-08T02:35:40.612Z,4.80
2022-11-08T02:36:40.663Z,4.10
2022-11-08T02:37:40.662Z,4.40
2022-11-08T02:38:40.585Z,3.60
2022-11-08T02:39:40.597Z,3.40
2022-11-08T02:40:40.654Z,6.40
2022-11-08T02:41:40.551Z,6.10
2022-11-08T02:42:40.533Z,4.20
2022-11-08T02:43:40.551Z,6.50
2022-11-08T02:44:40.652Z,4.20
2022-11-08T02:45:40.530Z,6.00
2022-11-08T02:46:40.513Z,6.50
2022-11-08T02:47:40.611Z,4.40
2022-11-08T02:48:40.489Z,4.50
2022-11-08T02:49:40.464Z,6.40
2022-11-08T02:50:40.444Z,6.20
2022-11-08T02:51:40.483Z,7.70
2022-11-08T02:52:40.429Z,6.60
2022-11-08T02:53:40.448Z,5.10
2022-11-08T02:54:40.414Z,4.80
2022-11-08T02:55:40.392Z,6.00
2022-11-08T02:56:40.382Z,6.90
2022-11-08T02:57:40.370Z,6.30
2022-11-08T02:58:40.380Z,8.20
2022-11-08T02:59:40.347Z,5.90
2022-11-08T03:00:40.348Z,4.20
2022-11-08T03:01:40.470Z,4.70
2022-11-08T03:02:40.397Z,5.20
2022-11-08T03:03:40.341Z,4.90
2022-11-08T03:04:40.289Z,5.10
2022-11-08T03:05:40.278Z,4.40
2022-11-08T03:06:40.307Z,5.10
2022-11-08T03:07:40.257Z,6.60
2022-11-08T03:08:40.305Z,5.90
2022-11-08T03:09:40.343Z,7.20
2022-11-08T03:10:40.224Z,4.60
2022-11-08T03:11:40.241Z,6.80
2022-11-08T03:12:40.210Z,6.60
2022-11-08T03:13:40.189Z,6.20
2022-11-08T03:14:40.223Z,5.50
2022-11-08T03:15:40.167Z,8.20
2022-11-08T03:16:40.185Z,8.30
2022-11-08T03:17:40.152Z,4.90
2022-11-08T03:18:40.150Z,6.50
2022-11-08T03:19:40.446Z,5.00
2022-11-08T03:20:40.116Z,5.10
2022-11-08T03:21:40.125Z,5.20
2022-11-08T03:22:40.120Z,6.10
2022-11-08T03:23:40.088Z,6.50
2022-11-08T03:24:40.068Z,5.10
2022-11-08T03:25:40.086Z,6.60
2022-11-08T03:26:40.043Z,5.50
2022-11-08T03:27:40.034Z,4.90
2022-11-08T03:28:40.045Z,4.80
2022-11-08T03:29:40.136Z,6.20
2022-11-08T03:30:40.095Z,7.00
2022-11-08T03:31:39.990Z,4.60
2022-11-08T03:32:39.981Z,6.80
2022-11-08T03:33:39.969Z,5.10
2022-11-08T03:34:39.978Z,6.20
2022-11-08T03:35:39.957Z,5.90
2022-11-08T03:36:39.960Z,4.20
2022-11-08T03:37:39.923Z,5.80
2022-11-08T03:38:39.913Z,5.70
2022-11-08T03:39:39.932Z,7.30
2022-11-08T03:40:39.899Z,5.50
2022-11-08T03:41:39.883Z,7.20
2022-11-08T03:42:39.864Z,5.70
2022-11-08T03:43:39.883Z,6.80
2022-11-08T03:44:39.849Z,8.40
2022-11-08T03:45:39.838Z,5.80
2022-11-08T03:46:39.828Z,5.70
2022-11-08T03:47:39.822Z,6.40
2022-11-08T03:48:39.825Z,4.00
2022-11-08T03:49:39.792Z,6.20
2022-11-08T03:50:39.862Z,6.10
2022-11-08T03:51:39.792Z,4.20
2022-11-08T03:52:39.763Z,5.90
2022-11-08T03:53:39.800Z,7.20
2022-11-08T03:54:39.757Z,4.30
2022-11-08T03:55:39.723Z,7.40
2022-11-08T03:56:39.725Z,5.30
2022-11-08T03:57:39.702Z,5.70
2022-11-08T03:58:39.735Z,8.50
2022-11-08T03:59:39.681Z,6.90
2022-11-08T04:00:39.686Z,5.90
2022-11-08T04:01:40.078Z,6.70
2022-11-08T04:02:39.808Z,5.30
2022-11-08T04:03:39.640Z,5.90
2022-11-08T04:04:39.646Z,6.90
2022-11-08T04:05:39.616Z,5.90
2022-11-08T04:06:39.618Z,5.60
2022-11-08T04:07:39.591Z,8.00
2022-11-08T04:08:39.578Z,6.20
2022-11-08T04:09:39.603Z,5.40
2022-11-08T04:10:39.592Z,6.30
2022-11-08T04:11:39.580Z,5.40
2022-11-08T04:12:39.533Z,6.70
2022-11-08T04:13:39.546Z,5.80
2022-11-08T04:14:39.519Z,6.00
2022-11-08T04:15:39.502Z,5.50
2022-11-08T04:16:39.634Z,4.50
2022-11-08T04:17:39.478Z,5.20
2022-11-08T04:18:39.496Z,5.50
2022-11-08T04:19:39.509Z,6.90
2022-11-08T04:20:39.468Z,5.50
2022-11-08T04:21:39.687Z,5.50
2022-11-08T04:22:39.446Z,6.30
2022-11-08T04:23:39.412Z,6.80
2022-11-08T04:24:39.404Z,5.60
2022-11-08T04:25:39.420Z,5.50
2022-11-08T04:26:39.378Z,4.20
2022-11-08T04:27:39.398Z,5.60
2022-11-08T04:28:39.407Z,6.90
2022-11-08T04:29:39.344Z,4.70
2022-11-08T04:30:39.330Z,4.40
2022-11-08T04:31:39.371Z,7.50
2022-11-08T04:32:39.310Z,5.60
2022-11-08T04:33:39.314Z,6.10
2022-11-08T04:34:39.350Z,5.50
2022-11-08T04:35:39.298Z,7.70
2022-11-08T04:36:39.290Z,4.80
2022-11-08T04:37:39.355Z,5.60
2022-11-08T04:38:39.268Z,5.40
2022-11-08T04:39:39.232Z,4.90
2022-11-08T04:40:39.260Z,5.10
2022-11-08T04:41:39.216Z,5.10
2022-11-08T04:42:39.228Z,6.00
2022-11-08T04:43:39.192Z,7.80
2022-11-08T04:44:39.175Z,4.80
2022-11-08T04:45:39.223Z,6.40
2022-11-08T04:46:39.155Z,5.10
2022-11-08T04:47:43.134Z,7.00
2022-11-08T04:48:40.148Z,7.90
2022-11-08T04:49:39.180Z,6.80
2022-11-08T04:50:39.110Z,4.70
2022-11-08T04:51:39.097Z,7.30
2022-11-08T04:52:39.113Z,5.40
2022-11-08T04:53:39.074Z,6.50
2022-11-08T04:54:39.079Z,5.70
2022-11-08T04:55:39.089Z,5.90
2022-11-08T04:56:39.092Z,4.40
2022-11-08T04:57:39.032Z,5.40
2022-11-08T04:58:39.024Z,6.10
2022-11-08T04:59:39.015Z,5.20
2022-11-08T05:00:39.020Z,5.00
2022-11-08T05:01:39.196Z,5.70
2022-11-08T05:02:39.141Z,6.70
2022-11-08T05:03:38.997Z,7.70
2022-11-08T05:04:38.970Z,4.50
2022-11-08T05:05:38.943Z,8.90
2022-11-08T05:06:38.930Z,7.00
2022-11-08T05:07:38.929Z,5.90
2022-11-08T05:08:38.907Z,5.10
2022-11-08T05:09:38.927Z,7.40
2022-11-08T05:10:38.920Z,6.40
2022-11-08T05:11:38.884Z,4.70
2022-11-08T05:12:38.889Z,6.00
2022-11-08T05:13:38.853Z,6.00
2022-11-08T05:14:38.849Z,4.80
2022-11-08T05:15:38.829Z,5.00
2022-11-08T05:16:38.819Z,6.50
2022-11-08T05:17:38.836Z,5.40
2022-11-08T05:18:41.713Z,6.20
2022-11-08T05:19:38.786Z,3.90
2022-11-08T05:20:38.776Z,7.50
2022-11-08T05:21:38.765Z,5.30
2022-11-08T05:22:38.773Z,6.40
2022-11-08T05:23:38.743Z,6.40
2022-11-08T05:24:38.727Z,4.70
2022-11-08T05:25:38.752Z,4.00
2022-11-08T05:26:38.723Z,6.30
2022-11-08T05:27:38.702Z,5.70
2022-11-08T05:28:38.684Z,5.90
2022-11-08T05:29:42.227Z,4.40
2022-11-08T05:30:38.662Z,5.40
2022-11-08T05:31:38.676Z,5.40
2022-11-08T05:32:38.671Z,3.00
2022-11-08T05:33:38.657Z,4.50
2022-11-08T05:34:38.620Z,4.20
2022-11-08T05:35:38.609Z,5.70
2022-11-08T05:36:38.616Z,8.60
2022-11-08T05:37:38.587Z,5.10
2022-11-08T05:38:38.588Z,7.50
2022-11-08T05:39:38.567Z,4.20
2022-11-08T05:40:38.576Z,7.30
2022-11-08T05:41:38.555Z,5.80
2022-11-08T05:42:38.545Z,5.70
2022-11-08T05:43:38.521Z,5.50
2022-11-08T05:44:38.508Z,6.20
2022-11-08T05:45:38.531Z,6.00
2022-11-08T05:46:38.490Z,5.90
2022-11-08T05:47:38.481Z,5.00
2022-11-08T05:48:38.484Z,5.90
2022-11-08T05:49:38.452Z,5.20
2022-11-08T05:50:38.450Z,6.70
2022-11-08T05:51:38.462Z,4.80
2022-11-08T05:52:38.494Z,8.20
2022-11-08T05:53:38.430Z,4.60
2022-11-08T05:54:38.399Z,5.40
2022-11-08T05:55:38.409Z,6.30
2022-11-08T05:56:38.378Z,5.40
2022-11-08T05:57:38.372Z,4.70
2022-11-08T05:58:38.371Z,6.40
2022-11-08T05:59:38.365Z,4.20
2022-11-08T06:00:38.329Z,5.60
2022-11-08T06:01:38.426Z,3.80
2022-11-08T06:02:38.375Z,5.30
2022-11-08T06:03:38.353Z,6.70
2022-11-08T06:04:38.300Z,7.70
2022-11-08T06:05:38.274Z,4.10
2022-11-08T06:06:38.268Z,6.00
2022-11-08T06:07:38.277Z,4.70
2022-11-08T06:08:38.247Z,5.70
2022-11-08T06:09:38.241Z,5.80
2022-11-08T06:10:38.221Z,7.70
2022-11-08T06:11:38.230Z,5.30
2022-11-08T06:12:38.263Z,5.00
2022-11-08T06:13:38.187Z,6.60
2022-11-08T06:14:38.222Z,5.40
2022-11-08T06:15:38.161Z,6.50
2022-11-08T06:16:38.150Z,6.80
2022-11-08T06:17:38.139Z,3.90
2022-11-08T06:18:38.154Z,4.80
2022-11-08T06:19:38.117Z,6.20
2022-11-08T06:20:38.111Z,5.90
2022-11-08T06:21:38.097Z,7.40
2022-11-08T06:22:38.084Z,6.00
2022-11-08T06:23:38.105Z,6.30
2022-11-08T06:24:38.061Z,6.30
2022-11-08T06:25:38.052Z,4.90
2022-11-08T06:26:38.044Z,7.40
2022-11-08T06:27:38.037Z,6.10
2022-11-08T06:28:38.041Z,6.50
2022-11-08T06:29:38.005Z,6.40
2022-11-08T06:30:38.019Z,5.00
2022-11-08T06:31:42.661Z,5.20
2022-11-08T06:32:38.970Z,4.60
2022-11-08T06:33:37.962Z,5.70
2022-11-08T06:34:37.980Z,6.30
2022-11-08T06:35:37.957Z,4.40
2022-11-08T06:36:37.929Z,5.20
2022-11-08T06:37:37.957Z,6.30
2022-11-08T06:38:37.905Z,4.20
2022-11-08T06:39:37.904Z,6.20
2022-11-08T06:40:37.885Z,3.90
2022-11-08T06:41:37.876Z,3.70
2022-11-08T06:42:37.887Z,3.90
2022-11-08T06:43:37.873Z,6.70
2022-11-08T06:44:37.844Z,6.60
2022-11-08T06:45:37.848Z,6.30
2022-11-08T06:46:37.832Z,4.30
2022-11-08T06:47:37.854Z,5.30
2022-11-08T06:48:37.827Z,3.90
2022-11-08T06:49:37.788Z,4.70
2022-11-08T06:50:37.778Z,6.30
2022-11-08T06:51:37.768Z,6.30
2022-11-08T06:52:37.754Z,4.60
2022-11-08T06:53:37.761Z,4.40
2022-11-08T06:54:37.733Z,5.10
2022-11-08T06:55:37.716Z,5.80
2022-11-08T06:56:37.706Z,6.00
2022-11-08T06:57:37.697Z,3.10
2022-11-08T06:58:37.721Z,4.20
2022-11-08T06:59:37.672Z,5.60
2022-11-08T07:00:37.685Z,5.80
2022-11-08T07:01:39.923Z,5.20
2022-11-08T07:02:38.890Z,6.80
2022-11-08T07:03:37.626Z,3.70
2022-11-08T07:04:37.621Z,4.90
2022-11-08T07:05:37.627Z,8.50
2022-11-08T07:06:37.593Z,6.70
2022-11-08T07:07:37.588Z,4.60
2022-11-08T07:08:37.573Z,6.50
2022-11-08T07:09:37.584Z,4.60
2022-11-08T07:10:37.555Z,5.80
2022-11-08T07:11:37.571Z,5.00
2022-11-08T07:12:37.527Z,4.20
2022-11-08T07:13:37.514Z,6.00
2022-11-08T07:14:37.505Z,6.20
2022-11-08T07:15:37.496Z,3.50
2022-11-08T07:16:37.609Z,4.10
2022-11-08T07:17:38.925Z,5.70
2022-11-08T07:18:37.566Z,6.50
2022-11-08T07:19:37.452Z,4.20
2022-11-08T07:20:38.120Z,5.70
2022-11-08T07:21:37.434Z,4.40
2022-11-08T07:22:37.445Z,3.60
2022-11-08T07:23:37.407Z,4.30
2022-11-08T07:24:37.393Z,6.30
2022-11-08T07:25:37.398Z,5.00
2022-11-08T07:26:37.487Z,5.30
2022-11-08T07:27:37.362Z,4.10
2022-11-08T07:28:37.354Z,4.30
2022-11-08T07:29:37.338Z,5.70
2022-11-08T07:30:37.330Z,4.50
2022-11-08T07:31:37.322Z,4.10
2022-11-08T07:32:37.334Z,6.10
2022-11-08T07:33:37.295Z,3.70
2022-11-08T07:34:37.287Z,5.70
2022-11-08T07:35:37.308Z,4.10
2022-11-08T07:36:37.269Z,5.50
2022-11-08T07:37:37.278Z,5.10
2022-11-08T07:38:37.240Z,5.50
2022-11-08T07:39:37.231Z,5.10
2022-11-08T07:40:37.216Z,5.60
2022-11-08T07:41:37.219Z,3.60
2022-11-08T07:42:57.175Z,5.60
2022-11-08T07:43:38.183Z,5.00
2022-11-08T07:44:37.173Z,5.70
2022-11-08T07:45:37.168Z,3.90
2022-11-08T07:46:37.154Z,5.10
2022-11-08T07:47:37.163Z,2.80
2022-11-08T07:48:37.130Z,4.80
2022-11-08T07:49:37.115Z,6.00
2022-11-08T07:50:37.113Z,5.50
2022-11-08T07:51:37.138Z,6.50
2022-11-08T07:52:37.084Z,3.80
2022-11-08T07:53:37.078Z,6.90
2022-11-08T07:54:37.062Z,3.80
2022-11-08T07:55:37.058Z,4.80
2022-11-08T07:56:37.071Z,4.00
2022-11-08T07:57:37.031Z,4.70
2022-11-08T07:58:37.020Z,4.20
2022-11-08T07:59:37.018Z,3.60
2022-11-08T08:00:37.019Z,6.00
2022-11-08T08:01:37.084Z,3.50
2022-11-08T08:02:37.053Z,4.30
2022-11-08T08:03:36.982Z,5.50
2022-11-08T08:04:36.975Z,6.50
2022-11-08T08:05:36.972Z,6.20
2022-11-08T08:06:36.930Z,4.00
2022-11-08T08:07:36.969Z,6.40
2022-11-08T08:08:36.907Z,5.20
2022-11-08T08:09:36.898Z,6.00
2022-11-08T08:10:36.885Z,4.20
2022-11-08T08:11:36.918Z,4.50
2022-11-08T08:12:36.863Z,4.90
2022-11-08T08:13:36.851Z,5.00
2022-11-08T08:14:36.838Z,3.90
2022-11-08T08:15:36.856Z,6.30
2022-11-08T08:16:36.821Z,4.10
2022-11-08T08:17:36.803Z,3.90
2022-11-08T08:18:36.825Z,3.10
2022-11-08T08:19:36.803Z,3.60
2022-11-08T08:20:36.774Z,4.00
2022-11-08T08:21:36.780Z,3.90
2022-11-08T08:22:36.752Z,3.60
2022-11-08T08:23:36.779Z,4.70
2022-11-08T08:24:36.730Z,4.70
2022-11-08T08:25:36.734Z,2.80
2022-11-08T08:26:36.707Z,4.40
2022-11-08T08:27:36.691Z,5.70
2022-11-08T08:28:36.712Z,2.90
2022-11-08T08:29:37.207Z,3.70
2022-11-08T08:30:36.658Z,4.70
2022-11-08T08:31:36.645Z,3.70
2022-11-08T08:32:36.644Z,3.00
2022-11-08T08:33:36.902Z,4.10
2022-11-08T08:34:36.644Z,4.00
2022-11-08T08:35:36.603Z,3.90
2022-11-08T08:36:36.590Z,3.80
2022-11-08T08:37:36.606Z,4.40
2022-11-08T08:38:41.423Z,3.60
2022-11-08T08:39:37.576Z,3.90
2022-11-08T08:40:36.588Z,5.40
2022-11-08T08:41:36.537Z,5.60
2022-11-08T08:42:36.522Z,3.40
2022-11-08T08:43:36.512Z,3.70
2022-11-08T08:44:36.503Z,3.40
2022-11-08T08:45:36.514Z,5.10
2022-11-08T08:46:36.506Z,3.70
2022-11-08T08:47:36.470Z,5.00
2022-11-08T08:48:36.478Z,4.00
2022-11-08T08:49:36.442Z,4.80
2022-11-08T08:50:36.441Z,3.20
2022-11-08T08:51:36.429Z,2.70
2022-11-08T08:52:36.418Z,3.80
2022-11-08T08:53:36.429Z,4.20
2022-11-08T08:54:36.390Z,3.40
2022-11-08T08:55:36.408Z,5.30
2022-11-08T08:56:36.395Z,2.90
2022-11-08T08:57:36.355Z,3.00
2022-11-08T08:58:36.397Z,3.60
2022-11-08T09:02:39.785Z,4.20
2022-11-08T09:03:37.297Z,2.20
2022-11-08T09:04:36.285Z,3.80
2022-11-08T09:05:36.271Z,3.70
2022-11-08T09:06:36.311Z,3.10
2022-11-08T09:07:36.270Z,2.30
2022-11-08T09:08:36.244Z,5.10
2022-11-08T09:09:36.228Z,5.10
2022-11-08T09:10:36.233Z,4.30
2022-11-08T09:11:36.458Z,3.20
2022-11-08T09:12:36.220Z,3.50
2022-11-08T09:13:36.179Z,3.00
2022-11-08T09:14:36.183Z,4.30
2022-11-08T09:15:36.157Z,3.60
2022-11-08T09:16:36.144Z,2.90
2022-11-08T09:17:36.165Z,3.10
2022-11-08T09:18:36.179Z,3.10
2022-11-08T09:19:36.111Z,2.50
2022-11-08T09:20:36.100Z,4.90
2022-11-08T09:21:36.131Z,4.60
2022-11-08T09:22:36.078Z,2.40
2022-11-08T09:23:36.088Z,1.70
2022-11-08T09:24:36.054Z,3.50
2022-11-08T09:25:36.039Z,3.10
2022-11-08T09:26:36.032Z,5.00
2022-11-08T09:27:36.034Z,3.90
2022-11-08T09:28:36.040Z,2.30
2022-11-08T09:29:35.997Z,4.40
2022-11-08T09:30:36.009Z,3.50
2022-11-08T09:31:35.977Z,1.30
2022-11-08T09:32:59.239Z,2.90
2022-11-08T09:33:36.951Z,4.00
2022-11-08T09:34:35.943Z,2.30
2022-11-08T09:35:35.924Z,2.90
2022-11-08T09:36:35.940Z,3.10
2022-11-08T09:37:35.909Z,2.30
2022-11-08T09:38:35.891Z,3.20
2022-11-08T09:39:35.928Z,2.70
2022-11-08T09:40:35.870Z,2.40
2022-11-08T09:41:35.857Z,3.90
2022-11-08T09:42:35.846Z,2.70
2022-11-08T09:43:35.852Z,2.50
2022-11-08T09:44:35.849Z,3.20
2022-11-08T09:45:35.810Z,3.30
2022-11-08T09:46:35.812Z,2.50
2022-11-08T09:47:35.803Z,2.40
2022-11-08T09:48:35.782Z,3.60
2022-11-08T09:49:35.802Z,4.00
2022-11-08T09:50:35.761Z,3.00
2022-11-08T09:51:35.769Z,2.00
2022-11-08T09:52:35.742Z,2.70
2022-11-08T09:53:35.728Z,1.70
2022-11-08T09:54:35.747Z,2.10
2022-11-08T09:55:35.725Z,3.70
2022-11-08T09:56:35.691Z,2.10
2022-11-08T09:57:35.680Z,3.30
2022-11-08T09:58:35.668Z,3.10
2022-11-08T09:59:35.698Z,3.90
2022-11-08T10:00:35.648Z,3.50
2022-11-08T10:01:35.721Z,2.80
2022-11-08T10:02:35.623Z,3.20
2022-11-08T10:03:35.612Z,2.00
2022-11-08T10:04:35.627Z,2.40
2022-11-08T10:05:35.588Z,2.70
2022-11-08T10:06:35.638Z,2.20
2022-11-08T10:07:35.574Z,2.70
2022-11-08T10:08:35.558Z,2.30
2022-11-08T10:09:35.570Z,2.90
2022-11-08T10:10:35.538Z,4.10
2022-11-08T10:11:35.525Z,5.20
2022-11-08T10:12:35.546Z,2.80
2022-11-08T10:13:35.503Z,1.90
2022-11-08T10:14:39.925Z,3.40
2022-11-08T10:15:36.496Z,2.20
2022-11-08T10:16:35.470Z,2.70
2022-11-08T10:17:35.478Z,4.30
2022-11-08T10:18:35.454Z,2.70
2022-11-08T10:19:35.435Z,3.20
2022-11-08T10:20:35.440Z,3.50
2022-11-08T10:21:35.415Z,2.20
2022-11-08T10:22:35.455Z,3.20
2022-11-08T10:23:35.390Z,5.20
2022-11-08T10:24:35.392Z,3.30
2022-11-08T10:25:35.372Z,2.90
2022-11-08T10:26:35.384Z,2.40
2022-11-08T10:27:35.351Z,2.40
2022-11-08T10:28:35.380Z,2.90
2022-11-08T10:29:35.333Z,3.80
2022-11-08T10:30:35.338Z,3.10
2022-11-08T10:31:35.325Z,1.60
2022-11-08T10:32:35.292Z,2.40
2022-11-08T10:33:35.307Z,2.80
2022-11-08T10:34:35.267Z,2.00
2022-11-08T10:35:35.257Z,2.20
2022-11-08T10:36:35.248Z,2.20
2022-11-08T10:37:35.239Z,4.70
2022-11-08T10:38:35.227Z,3.90
2022-11-08T10:39:35.252Z,3.50
2022-11-08T10:40:35.210Z,2.10
2022-11-08T10:41:35.195Z,3.60
2022-11-08T10:42:35.182Z,3.50
2022-11-08T10:43:35.171Z,2.20
2022-11-08T10:44:35.187Z,2.70
2022-11-08T10:45:35.188Z,2.60
2022-11-08T10:46:35.186Z,1.90
2022-11-08T10:47:35.139Z,3.90
2022-11-08T10:48:35.114Z,3.30
2022-11-08T10:49:35.125Z,1.80
2022-11-08T10:50:35.119Z,2.50
2022-11-08T10:51:35.091Z,4.90
2022-11-08T10:52:35.073Z,2.90
2022-11-08T10:53:35.058Z,3.60
2022-11-08T10:54:35.048Z,3.70
2022-11-08T10:55:35.034Z,2.40
2022-11-08T10:56:37.759Z,1.80
2022-11-08T10:57:35.011Z,2.60
2022-11-08T10:58:35.002Z,2.70
2022-11-08T10:59:34.994Z,3.20
2022-11-08T11:00:34.978Z,2.60
2022-11-08T11:01:35.116Z,2.30
2022-11-08T11:02:34.958Z,2.30
2022-11-08T11:03:35.035Z,2.00
2022-11-08T11:04:34.967Z,2.90
2022-11-08T11:05:34.963Z,2.70
2022-11-08T11:06:35.023Z,3.50
2022-11-08T11:07:34.963Z,3.00
2022-11-08T11:08:34.930Z,1.70
2022-11-08T11:09:34.881Z,2.60
2022-11-08T11:10:34.882Z,2.40
2022-11-08T11:11:34.884Z,4.90
2022-11-08T11:12:34.861Z,2.90
2022-11-08T11:13:34.866Z,2.30
2022-11-08T11:14:34.960Z,4.20
2022-11-08T11:15:34.822Z,1.80
2022-11-08T11:16:34.807Z,2.10
2022-11-08T11:17:38.838Z,2.20
2022-11-08T11:18:35.803Z,2.30
2022-11-08T11:19:34.806Z,2.20
2022-11-08T11:20:34.772Z,3.10
2022-11-08T11:21:34.852Z,3.30
2022-11-08T11:22:34.754Z,3.90
2022-11-08T11:23:34.858Z,3.30
2022-11-08T11:24:34.735Z,3.20
2022-11-08T11:25:34.704Z,2.80
2022-11-08T11:26:34.715Z,2.00
2022-11-08T11:27:34.691Z,3.70
2022-11-08T11:28:34.695Z,1.80
2022-11-08T11:29:34.668Z,3.20
2022-11-08T11:30:34.645Z,3.30
2022-11-08T11:31:34.810Z,2.20
2022-11-08T11:32:34.641Z,2.40
2022-11-08T11:33:34.615Z,1.30
2022-11-08T11:34:34.597Z,1.80
2022-11-08T11:35:34.671Z,3.10
2022-11-08T11:36:34.593Z,2.40
2022-11-08T11:37:34.570Z,3.40
2022-11-08T11:38:34.558Z,4.20
2022-11-08T11:39:34.559Z,7.30
2022-11-08T11:40:34.553Z,2.60
2022-11-08T11:41:34.588Z,1.50
2022-11-08T11:42:49.871Z,8.50
2022-11-08T11:43:35.669Z,4.20
2022-11-08T11:44:34.508Z,2.90
2022-11-08T11:45:34.510Z,4.30
2022-11-08T11:46:40.195Z,2.70
2022-11-08T11:47:35.585Z,3.30
2022-11-08T11:48:34.450Z,2.80
2022-11-08T11:49:34.452Z,2.20
2022-11-08T11:50:34.424Z,3.20
2022-11-08T11:51:34.736Z,2.20
2022-11-08T11:52:34.399Z,1.60
2022-11-08T11:53:34.413Z,2.50
2022-11-08T11:54:34.375Z,3.60
2022-11-08T11:55:34.363Z,3.60
2022-11-08T11:56:34.378Z,2.30
2022-11-08T11:57:34.348Z,2.80
2022-11-08T11:58:34.361Z,2.70
2022-11-08T11:59:34.337Z,2.60
2022-11-08T12:00:34.314Z,2.40
2022-11-08T12:01:34.407Z,2.40
2022-11-08T12:02:34.363Z,2.40
2022-11-08T12:03:34.310Z,1.80
2022-11-08T12:04:34.295Z,4.20
2022-11-08T12:05:34.258Z,1.50
2022-11-08T12:06:34.325Z,2.30
2022-11-08T12:07:34.272Z,1.60
2022-11-08T12:08:34.220Z,1.90
2022-11-08T12:09:34.231Z,1.50
2022-11-08T12:10:34.230Z,1.20
2022-11-08T12:11:34.189Z,2.70
2022-11-08T12:12:34.182Z,2.80
2022-11-08T12:13:34.164Z,1.90
2022-11-08T12:14:34.215Z,2.30
2022-11-08T12:15:34.154Z,2.90
2022-11-08T12:16:34.130Z,3.20
2022-11-08T12:17:34.147Z,2.90
2022-11-08T12:18:43.175Z,2.20
2022-11-08T12:19:35.094Z,1.40
2022-11-08T12:20:34.086Z,1.60
2022-11-08T12:21:34.082Z,1.70
2022-11-08T12:22:34.099Z,2.10
2022-11-08T12:23:34.077Z,1.30
2022-11-08T12:24:34.062Z,2.00
2022-11-08T12:25:34.031Z,1.90
2022-11-08T12:26:34.034Z,1.90
2022-11-08T12:27:34.008Z,1.90
2022-11-08T12:28:36.394Z,2.20
2022-11-08T12:29:35.008Z,1.30
2022-11-08T12:30:33.973Z,2.00
2022-11-08T12:31:34.011Z,1.80
2022-11-08T12:32:33.962Z,2.90
2022-11-08T12:33:33.949Z,2.20
2022-11-08T12:34:33.956Z,2.80
2022-11-08T12:35:33.923Z,2.80
2022-11-08T12:36:33.910Z,2.70
2022-11-08T12:37:33.897Z,2.80
2022-11-08T12:38:33.895Z,1.20
2022-11-08T12:39:33.922Z,3.00
2022-11-08T12:40:33.910Z,1.80
2022-11-08T12:41:33.854Z,2.20
2022-11-08T12:42:33.842Z,2.00
2022-11-08T12:43:33.836Z,1.90
2022-11-08T12:44:33.820Z,1.30
2022-11-08T12:45:33.842Z,2.00
2022-11-08T12:46:33.796Z,1.40
2022-11-08T12:47:33.792Z,2.40
2022-11-08T12:48:33.779Z,2.00
2022-11-08T12:49:33.778Z,1.80
2022-11-08T12:50:33.778Z,3.30
2022-11-08T12:51:33.741Z,2.10
2022-11-08T12:52:33.728Z,1.60
2022-11-08T12:53:33.723Z,1.30
2022-11-08T12:54:33.707Z,3.20
2022-11-08T12:55:33.735Z,2.80
2022-11-08T12:56:34.549Z,3.60
2022-11-08T12:57:33.676Z,2.20
2022-11-08T12:58:34.558Z,2.80
2022-11-08T12:59:33.657Z,3.00
2022-11-08T13:00:33.668Z,2.30
2022-11-08T13:01:33.674Z,1.60
2022-11-08T13:02:33.668Z,1.90
2022-11-08T13:03:33.608Z,2.00
2022-11-08T13:04:33.597Z,2.70
2022-11-08T13:05:33.591Z,2.30
2022-11-08T13:06:33.643Z,1.90
2022-11-08T13:07:33.588Z,1.40
2022-11-08T13:08:33.554Z,2.30
2022-11-08T13:09:33.542Z,2.00
2022-11-08T13:10:33.526Z,1.90
2022-11-08T13:11:33.561Z,2.90
2022-11-08T13:12:33.528Z,1.30
2022-11-08T13:13:33.502Z,3.60
2022-11-08T13:14:38.547Z,1.80
2022-11-08T13:15:34.484Z,2.70
2022-11-08T13:16:33.460Z,2.30
2022-11-08T13:17:33.452Z,2.10
2022-11-08T13:18:33.440Z,1.30
2022-11-08T13:19:33.453Z,1.80
2022-11-08T13:20:33.420Z,1.80
2022-11-08T13:21:33.413Z,2.20